createdAt,value
2023-08-07T00:00:11.557Z,85.39
2023-08-07T00:02:39.835Z,85.20
2023-08-07T00:05:08.648Z,85.16
2023-08-07T00:07:36.770Z,85.13
2023-08-07T00:10:05.688Z,85.48
2023-08-07T00:12:33.903Z,85.88
2023-08-07T00:15:02.881Z,85.42
2023-08-07T00:17:32.465Z,85.17
2023-08-07T00:20:00.587Z,85.19
2023-08-07T00:22:28.662Z,85.23
2023-08-07T00:24:56.740Z,85.04
2023-08-07T00:27:24.786Z,85.39
2023-08-07T00:29:52.766Z,85.10
2023-08-07T00:32:20.862Z,85.33
2023-08-07T00:34:50.510Z,85.03
2023-08-07T00:37:18.519Z,85.19
2023-08-07T00:39:46.504Z,85.29
2023-08-07T00:42:14.607Z,85.41
2023-08-07T00:44:42.614Z,85.09
2023-08-07T00:47:10.634Z,85.20
2023-08-07T00:49:38.959Z,85.14
2023-08-07T00:52:09.329Z,85.24
2023-08-07T00:54:37.668Z,85.23
2023-08-07T00:57:13.515Z,85.24
2023-08-07T00:59:42.281Z,85.16
2023-08-07T01:02:11.418Z,84.99
2023-08-07T01:04:39.803Z,85.25
2023-08-07T01:07:09.610Z,84.86
2023-08-07T01:09:37.649Z,85.14
2023-08-07T01:12:12.129Z,85.09
2023-08-07T01:14:44.505Z,85.16
2023-08-07T01:17:14.257Z,84.95
2023-08-07T01:19:42.684Z,85.05
2023-08-07T01:22:13.061Z,85.18
2023-08-07T01:24:42.220Z,85.12
2023-08-07T01:27:24.359Z,85.09
2023-08-07T01:29:57.227Z,84.90
2023-08-07T01:32:29.462Z,85.17
2023-08-07T01:34:58.897Z,85.20
2023-08-07T01:37:28.574Z,84.88
2023-08-07T01:39:57.626Z,85.10
2023-08-07T01:42:25.783Z,85.11
2023-08-07T01:44:53.957Z,85.13
2023-08-07T01:47:22.107Z,85.11
2023-08-07T01:49:50.262Z,85.20
2023-08-07T01:52:18.260Z,85.14
2023-08-07T01:54:47.892Z,85.28
2023-08-07T01:57:15.903Z,85.16
2023-08-07T01:59:44.866Z,85.22
2023-08-07T02:02:13.347Z,85.19
2023-08-07T02:04:41.791Z,85.08
2023-08-07T02:07:09.845Z,85.07
2023-08-07T02:09:37.946Z,85.28
2023-08-07T02:12:09.389Z,84.88
2023-08-07T02:14:37.504Z,84.99
2023-08-07T02:17:06.839Z,85.08
2023-08-07T02:19:35.021Z,84.87
2023-08-07T02:22:04.006Z,84.96
2023-08-07T02:24:32.518Z,85.01
2023-08-07T02:27:00.612Z,85.11
2023-08-07T02:29:31.282Z,85.13
2023-08-07T02:31:59.378Z,85.11
2023-08-07T02:34:27.672Z,85.13
2023-08-07T02:36:55.887Z,85.06
2023-08-07T02:39:24.550Z,85.26
2023-08-07T02:41:51.683Z,84.78
2023-08-07T02:44:21.199Z,85.02
2023-08-07T02:46:50.605Z,85.00
2023-08-07T02:49:18.712Z,85.17
2023-08-07T02:51:46.836Z,85.14
2023-08-07T02:54:14.926Z,85.12
2023-08-07T02:56:43.578Z,84.83
2023-08-07T02:59:11.389Z,85.05
2023-08-07T03:01:39.581Z,84.86
2023-08-07T03:04:08.970Z,85.04
2023-08-07T03:06:37.082Z,84.89
2023-08-07T03:09:05.368Z,85.21
2023-08-07T03:11:33.469Z,85.02
2023-08-07T03:14:01.695Z,84.84
2023-08-07T03:16:29.925Z,85.13
2023-08-07T03:18:57.999Z,84.89
2023-08-07T03:21:27.447Z,85.38
2023-08-07T03:23:55.856Z,85.20
2023-08-07T03:26:24.188Z,84.98
2023-08-07T03:28:52.259Z,85.01
2023-08-07T03:31:20.319Z,84.96
2023-08-07T03:33:48.492Z,84.95
2023-08-07T03:36:16.529Z,85.20
2023-08-07T03:38:46.005Z,84.98
2023-08-07T03:41:14.149Z,85.09
2023-08-07T03:43:42.247Z,84.86
2023-08-07T03:46:10.297Z,84.87
2023-08-07T03:48:38.477Z,85.09
2023-08-07T03:51:06.946Z,84.95
2023-08-07T03:53:35.067Z,84.93
2023-08-07T03:56:04.599Z,85.10
2023-08-07T03:58:32.607Z,85.06
2023-08-07T04:01:00.733Z,84.88
2023-08-07T04:03:28.996Z,84.85
2023-08-07T04:05:57.601Z,84.75
2023-08-07T04:08:25.514Z,85.10
2023-08-07T04:11:05.168Z,84.88
2023-08-07T04:13:33.730Z,84.92
2023-08-07T04:16:02.215Z,84.82
2023-08-07T04:18:30.360Z,85.29
2023-08-07T04:20:59.181Z,85.28
2023-08-07T04:23:27.492Z,85.28
2023-08-07T04:25:56.151Z,84.82
2023-08-07T04:28:25.968Z,85.05
2023-08-07T04:30:54.781Z,85.17
2023-08-07T04:33:23.265Z,84.92
2023-08-07T04:35:51.392Z,84.89
2023-08-07T04:38:20.244Z,84.84
2023-08-07T04:40:48.584Z,85.12
2023-08-07T04:43:16.843Z,84.91
2023-08-07T04:45:46.791Z,85.21
2023-08-07T04:48:15.323Z,85.19
2023-08-07T04:50:43.814Z,85.14
2023-08-07T04:53:11.929Z,84.80
2023-08-07T04:55:40.913Z,84.90
2023-08-07T04:58:09.022Z,85.10
2023-08-07T05:00:37.192Z,84.93
2023-08-07T05:03:06.869Z,85.16
2023-08-07T05:05:35.111Z,84.89
2023-08-07T05:08:03.503Z,85.02
2023-08-07T05:10:31.572Z,85.08
2023-08-07T05:13:00.117Z,84.89
2023-08-07T05:15:29.862Z,84.72
2023-08-07T05:17:58.031Z,85.09
2023-08-07T05:20:27.582Z,85.23
2023-08-07T05:22:57.368Z,85.05
2023-08-07T05:25:25.531Z,85.03
2023-08-07T05:27:53.723Z,85.13
2023-08-07T05:30:21.835Z,85.10
2023-08-07T05:32:50.162Z,85.08
2023-08-07T05:35:18.501Z,85.01
2023-08-07T05:37:48.022Z,85.08
2023-08-07T05:40:16.447Z,84.93
2023-08-07T05:42:44.570Z,85.08
2023-08-07T05:45:13.024Z,84.83
2023-08-07T05:47:41.171Z,84.77
2023-08-07T05:50:10.168Z,84.67
2023-08-07T05:52:38.361Z,85.22
2023-08-07T05:55:10.651Z,84.88
2023-08-07T05:57:38.760Z,84.59
2023-08-07T06:00:09.180Z,84.78
2023-08-07T06:02:37.392Z,84.91
2023-08-07T06:05:06.153Z,85.32
2023-08-07T06:07:34.236Z,84.63
2023-08-07T06:10:02.600Z,84.74
2023-08-07T06:12:32.261Z,85.10
2023-08-07T06:15:00.462Z,84.96
2023-08-07T06:17:28.690Z,84.94
2023-08-07T06:19:56.778Z,84.74
2023-08-07T06:22:24.865Z,85.07
2023-08-07T06:24:53.246Z,85.00
2023-08-07T06:27:23.560Z,84.97
2023-08-07T06:29:53.238Z,85.05
2023-08-07T06:32:21.419Z,84.92
2023-08-07T06:34:49.557Z,85.00
2023-08-07T06:37:17.686Z,84.91
2023-08-07T06:39:47.898Z,84.67
2023-08-07T06:42:17.700Z,84.97
2023-08-07T06:44:46.012Z,85.13
2023-08-07T06:47:15.578Z,84.98
2023-08-07T06:49:43.884Z,84.99
2023-08-07T06:52:12.098Z,84.67
2023-08-07T06:54:40.303Z,84.64
2023-08-07T06:57:08.780Z,85.17
2023-08-07T06:59:36.919Z,85.10
2023-08-07T07:02:05.320Z,84.92
2023-08-07T07:04:35.415Z,84.84
2023-08-07T07:07:03.707Z,84.67
2023-08-07T07:09:32.217Z,85.12
2023-08-07T07:12:00.410Z,85.01
2023-08-07T07:14:28.830Z,84.83
2023-08-07T07:16:56.968Z,84.81
2023-08-07T07:19:25.153Z,85.07
2023-08-07T07:21:54.813Z,84.98
2023-08-07T07:24:23.266Z,85.00
2023-08-07T07:26:51.577Z,84.86
2023-08-07T07:29:20.287Z,84.98
2023-08-07T07:31:48.507Z,84.65
2023-08-07T07:34:16.714Z,85.07
2023-08-07T07:36:44.977Z,85.01
2023-08-07T07:39:14.741Z,84.83
2023-08-07T07:41:43.328Z,85.03
2023-08-07T07:44:11.454Z,84.93
2023-08-07T07:46:39.571Z,85.16
2023-08-07T07:49:07.921Z,85.00
2023-08-07T07:51:38.959Z,85.09
2023-08-07T07:54:15.242Z,84.75
2023-08-07T07:56:45.332Z,84.67
2023-08-07T07:59:15.051Z,84.63
2023-08-07T08:01:43.388Z,85.05
2023-08-07T08:04:12.527Z,85.08
2023-08-07T08:06:42.068Z,84.66
2023-08-07T08:09:11.269Z,84.92
2023-08-07T08:11:39.632Z,85.06
2023-08-07T08:14:09.176Z,84.88
2023-08-07T08:16:37.463Z,85.12
2023-08-07T08:19:05.923Z,84.67
2023-08-07T08:21:34.171Z,84.89
2023-08-07T08:24:02.430Z,85.06
2023-08-07T08:26:32.390Z,85.15
2023-08-07T08:29:00.553Z,84.70
2023-08-07T08:31:30.174Z,85.02
2023-08-07T08:33:58.991Z,84.60
2023-08-07T08:36:27.103Z,84.81
2023-08-07T08:38:55.365Z,84.51
2023-08-07T08:41:23.836Z,84.50
2023-08-07T08:43:54.940Z,84.81
2023-08-07T08:46:23.795Z,84.45
2023-08-07T08:48:54.759Z,84.60
2023-08-07T08:51:23.690Z,84.36
2023-08-07T08:53:52.829Z,84.45
2023-08-07T08:56:21.097Z,84.78
2023-08-07T08:58:49.582Z,84.82
2023-08-07T09:01:18.119Z,84.55
2023-08-07T09:03:46.856Z,84.58
2023-08-07T09:06:16.764Z,84.37
2023-08-07T09:08:45.739Z,84.67
2023-08-07T09:11:15.242Z,84.59
2023-08-07T09:13:43.489Z,84.76
2023-08-07T09:16:12.299Z,84.67
2023-08-07T09:18:41.338Z,84.62
2023-08-07T09:21:09.643Z,84.77
2023-08-07T09:23:39.188Z,84.67
2023-08-07T09:26:09.613Z,84.74
2023-08-07T09:28:38.414Z,84.62
2023-08-07T09:31:10.626Z,84.76
2023-08-07T09:33:38.906Z,84.78
2023-08-07T09:36:07.414Z,84.77
2023-08-07T09:38:35.784Z,84.76
2023-08-07T09:41:05.958Z,84.58
2023-08-07T09:43:36.930Z,84.64
2023-08-07T09:46:06.070Z,84.57
2023-08-07T09:48:35.493Z,84.59
2023-08-07T09:51:04.719Z,84.79
2023-08-07T09:53:33.666Z,84.44
2023-08-07T09:56:02.042Z,84.68
2023-08-07T09:58:32.095Z,84.85
2023-08-07T10:01:02.028Z,84.79
2023-08-07T10:03:30.249Z,84.65
2023-08-07T10:05:58.842Z,84.82
2023-08-07T10:08:27.407Z,84.86
2023-08-07T10:10:55.683Z,84.79
2023-08-07T10:13:34.464Z,84.48
2023-08-07T10:16:09.312Z,84.74
2023-08-07T10:18:38.275Z,84.78
2023-08-07T10:21:07.969Z,84.80
2023-08-07T10:23:37.633Z,84.76
2023-08-07T10:26:07.056Z,84.95
2023-08-07T10:28:39.723Z,84.85
2023-08-07T10:31:09.755Z,84.58
2023-08-07T10:33:38.073Z,85.11
2023-08-07T10:36:11.514Z,84.81
2023-08-07T10:38:40.022Z,84.65
2023-08-07T10:41:11.994Z,84.66
2023-08-07T10:43:41.066Z,84.58
2023-08-07T10:46:12.907Z,84.55
2023-08-07T10:48:42.610Z,84.70
2023-08-07T10:51:10.782Z,84.48
2023-08-07T10:53:43.522Z,84.81
2023-08-07T10:56:13.798Z,84.49
2023-08-07T10:58:43.427Z,84.85
2023-08-07T11:01:24.181Z,84.84
2023-08-07T11:03:53.831Z,84.76
2023-08-07T11:06:24.958Z,84.64
2023-08-07T11:08:53.827Z,84.96
2023-08-07T11:11:22.296Z,84.66
2023-08-07T11:13:50.509Z,84.63
2023-08-07T11:16:23.359Z,84.60
2023-08-07T11:18:53.273Z,84.47
2023-08-07T11:21:21.567Z,84.93
2023-08-07T11:23:50.971Z,84.57
2023-08-07T11:26:23.014Z,84.89
2023-08-07T11:28:52.271Z,84.67
2023-08-07T11:31:20.729Z,84.47
2023-08-07T11:33:49.049Z,84.66
2023-08-07T11:36:18.667Z,84.46
2023-08-07T11:38:47.137Z,84.96
2023-08-07T11:41:16.553Z,84.76
2023-08-07T11:43:45.078Z,84.55
2023-08-07T11:46:15.478Z,84.58
2023-08-07T11:48:45.026Z,84.86
2023-08-07T11:51:13.283Z,84.60
2023-08-07T11:53:43.621Z,84.62
2023-08-07T11:56:12.698Z,84.42
2023-08-07T11:58:41.928Z,84.77
2023-08-07T12:01:13.134Z,84.53
2023-08-07T12:03:43.760Z,84.78
2023-08-07T12:06:12.343Z,84.62
2023-08-07T12:08:40.809Z,84.57
2023-08-07T12:11:11.779Z,84.81
2023-08-07T12:13:40.393Z,84.63
2023-08-07T12:16:08.649Z,84.64
2023-08-07T12:18:38.997Z,84.69
2023-08-07T12:21:09.207Z,84.89
2023-08-07T12:23:38.236Z,84.49
2023-08-07T12:26:08.289Z,84.76
2023-08-07T12:28:38.339Z,84.85
2023-08-07T12:31:08.167Z,84.82
2023-08-07T12:33:37.150Z,84.87
2023-08-07T12:36:05.754Z,84.62
2023-08-07T12:38:34.229Z,84.60
2023-08-07T12:41:05.470Z,84.20
2023-08-07T12:43:33.638Z,84.55
2023-08-07T12:48:34.521Z,84.76
2023-08-07T12:51:02.728Z,84.40
2023-08-07T12:53:33.057Z,84.78
2023-08-07T12:56:01.284Z,84.57
2023-08-07T12:58:30.917Z,84.32
2023-08-07T13:00:59.496Z,84.73
2023-08-07T13:03:29.216Z,84.48
2023-08-07T13:05:57.456Z,84.50
2023-08-07T13:08:25.508Z,84.42
2023-08-07T13:10:53.784Z,85.01
2023-08-07T13:13:21.918Z,84.41
2023-08-07T13:15:50.173Z,84.47
2023-08-07T13:18:18.426Z,84.41
2023-08-07T13:20:48.177Z,84.79
2023-08-07T13:23:16.832Z,84.36
2023-08-07T13:25:45.100Z,84.69
2023-08-07T13:28:13.429Z,84.29
2023-08-07T13:30:42.713Z,84.42
2023-08-07T13:33:10.905Z,84.78
2023-08-07T13:35:39.586Z,84.60
2023-08-07T13:38:12.614Z,84.75
2023-08-07T13:40:41.928Z,84.77
2023-08-07T13:43:10.751Z,84.83
2023-08-07T13:45:39.507Z,84.51
2023-08-07T13:48:10.849Z,84.62
2023-08-07T13:50:40.419Z,84.73
2023-08-07T13:53:14.967Z,84.43
2023-08-07T13:55:44.646Z,84.28
2023-08-07T13:58:13.389Z,84.69
2023-08-07T14:00:42.127Z,84.33
2023-08-07T14:03:11.432Z,84.62
2023-08-07T14:05:40.146Z,84.55
2023-08-07T14:08:12.028Z,84.88
2023-08-07T14:10:42.670Z,84.53
2023-08-07T14:13:12.942Z,84.49
2023-08-07T14:15:41.377Z,84.84
2023-08-07T14:18:09.786Z,84.68
2023-08-07T14:20:48.137Z,84.97
2023-08-07T14:23:29.635Z,84.65
2023-08-07T14:25:58.976Z,84.59
2023-08-07T14:28:28.915Z,85.04
2023-08-07T14:30:59.885Z,84.79
2023-08-07T14:33:29.420Z,84.91
2023-08-07T14:35:57.606Z,85.07
2023-08-07T14:38:27.280Z,84.85
2023-08-07T14:40:55.531Z,84.85
2023-08-07T14:43:24.061Z,84.61
2023-08-07T14:45:52.068Z,84.79
2023-08-07T14:48:20.808Z,84.68
2023-08-07T14:50:49.176Z,85.22
2023-08-07T14:53:17.386Z,84.86
2023-08-07T14:55:47.916Z,84.66
2023-08-07T14:58:16.130Z,84.96
2023-08-07T15:00:44.371Z,84.87
2023-08-07T15:03:12.639Z,84.85
2023-08-07T15:05:40.959Z,84.83
2023-08-07T15:08:09.234Z,84.96
2023-08-07T15:10:38.074Z,84.90
2023-08-07T15:13:08.407Z,84.84
2023-08-07T15:15:36.587Z,84.80
2023-08-07T15:18:06.724Z,84.56
2023-08-07T15:20:36.684Z,84.98
2023-08-07T15:23:07.227Z,85.05
2023-08-07T15:25:35.644Z,85.07
2023-08-07T15:28:05.167Z,84.83
2023-08-07T15:30:35.361Z,84.76
2023-08-07T15:33:03.886Z,85.12
2023-08-07T15:35:33.106Z,84.83
2023-08-07T15:38:01.616Z,85.11
2023-08-07T15:40:30.376Z,85.29
2023-08-07T15:42:58.780Z,84.89
2023-08-07T15:45:27.021Z,84.89
2023-08-07T15:47:56.839Z,85.33
2023-08-07T15:50:25.284Z,85.05
2023-08-07T15:52:53.628Z,85.20
2023-08-07T15:55:21.907Z,85.13
2023-08-07T15:57:50.078Z,85.31
2023-08-07T16:00:19.925Z,84.87
2023-08-07T16:02:48.952Z,85.27
2023-08-07T16:05:21.971Z,85.35
2023-08-07T16:07:51.743Z,85.34
2023-08-07T16:10:20.640Z,85.35
2023-08-07T16:12:49.116Z,85.40
2023-08-07T16:15:17.539Z,84.88
2023-08-07T16:17:45.777Z,84.98
2023-08-07T16:20:14.334Z,85.28
2023-08-07T16:22:44.098Z,85.11
2023-08-07T16:25:12.573Z,84.86
2023-08-07T16:27:43.337Z,85.61
2023-08-07T16:30:11.797Z,85.50
2023-08-07T16:32:40.987Z,85.44
2023-08-07T16:35:09.949Z,85.21
2023-08-07T16:37:38.252Z,85.01
2023-08-07T16:40:09.415Z,85.41
2023-08-07T16:42:37.636Z,85.49
2023-08-07T16:45:06.732Z,85.04
2023-08-07T16:47:35.007Z,85.27
2023-08-07T16:50:03.312Z,85.13
2023-08-07T16:52:31.539Z,85.29
2023-08-07T16:54:59.989Z,85.24
2023-08-07T16:57:29.892Z,85.24
2023-08-07T16:59:58.114Z,85.36
2023-08-07T17:02:26.859Z,85.21
2023-08-07T17:04:55.301Z,85.25
2023-08-07T17:07:23.514Z,85.39
2023-08-07T17:09:51.876Z,85.15
2023-08-07T17:12:20.070Z,85.50
2023-08-07T17:14:49.731Z,85.59
2023-08-07T17:17:17.858Z,85.32
2023-08-07T17:19:46.067Z,85.03
2023-08-07T17:22:14.286Z,85.50
2023-08-07T17:24:42.398Z,85.25
2023-08-07T17:27:10.719Z,85.16
2023-08-07T17:29:38.890Z,85.55
2023-08-07T17:32:08.838Z,85.23
2023-08-07T17:34:37.084Z,85.56
2023-08-07T17:37:05.739Z,85.11
2023-08-07T17:39:33.607Z,85.36
2023-08-07T17:42:01.851Z,85.33
2023-08-07T17:44:30.062Z,85.46
2023-08-07T17:46:58.651Z,85.34
2023-08-07T17:49:28.925Z,85.47
2023-08-07T17:51:57.302Z,85.24
2023-08-07T17:54:25.638Z,85.43
2023-08-07T17:56:53.866Z,85.19
2023-08-07T17:59:22.517Z,85.28
2023-08-07T18:01:50.514Z,85.40
2023-08-07T18:04:18.839Z,85.24
2023-08-07T18:06:48.440Z,85.42
2023-08-07T18:09:16.735Z,85.42
2023-08-07T18:11:44.969Z,85.56
2023-08-07T18:14:13.151Z,85.08
2023-08-07T18:16:41.407Z,85.63
2023-08-07T18:19:09.723Z,85.63
2023-08-07T18:21:37.989Z,85.43
2023-08-07T18:24:07.649Z,85.25
2023-08-07T18:26:35.801Z,85.39
2023-08-07T18:29:03.937Z,85.52
2023-08-07T18:31:33.801Z,85.32
2023-08-07T18:34:03.405Z,85.53
2023-08-07T18:36:31.679Z,85.21
2023-08-07T18:38:59.802Z,85.53
2023-08-07T18:41:29.374Z,85.58
2023-08-07T18:43:57.578Z,85.23
2023-08-07T18:46:25.931Z,85.35
2023-08-07T18:48:54.117Z,85.20
2023-08-07T18:51:22.746Z,85.60
2023-08-07T18:53:50.674Z,85.52
2023-08-07T18:56:18.916Z,85.37
2023-08-07T18:58:48.475Z,85.37
2023-08-07T19:01:16.643Z,85.62
2023-08-07T19:03:45.004Z,85.46
2023-08-07T19:06:13.282Z,85.73
2023-08-07T19:08:41.835Z,85.26
2023-08-07T19:11:10.186Z,85.50
2023-08-07T19:13:38.657Z,85.19
2023-08-07T19:16:08.467Z,85.66
2023-08-07T19:18:36.698Z,85.55
2023-08-07T19:21:04.855Z,85.38
2023-08-07T19:23:33.620Z,85.33
2023-08-07T19:26:05.266Z,85.21
2023-08-07T19:28:33.438Z,85.35
2023-08-07T19:31:06.489Z,85.33
2023-08-07T19:33:36.515Z,85.18
2023-08-07T19:36:04.830Z,85.22
2023-08-07T19:38:32.980Z,85.00
2023-08-07T19:41:01.594Z,85.13
2023-08-07T19:43:29.759Z,85.22
2023-08-07T19:45:58.375Z,85.27
2023-08-07T19:48:26.615Z,85.42
2023-08-07T19:50:56.668Z,85.54
2023-08-07T19:53:25.132Z,85.12
2023-08-07T19:55:53.436Z,85.23
2023-08-07T19:58:21.736Z,85.17
2023-08-07T20:00:50.159Z,85.18
2023-08-07T20:03:18.345Z,85.33
2023-08-07T20:05:46.422Z,85.34
2023-08-07T20:08:16.278Z,85.51
2023-08-07T20:10:44.473Z,85.39
2023-08-07T20:13:12.776Z,84.96
2023-08-07T20:15:41.368Z,85.02
2023-08-07T20:18:09.496Z,84.96
2023-08-07T20:20:37.902Z,85.10
2023-08-07T20:23:06.442Z,85.04
2023-08-07T20:25:36.004Z,85.29
2023-08-07T20:28:04.137Z,85.44
2023-08-07T20:30:32.614Z,85.25
2023-08-07T20:33:00.908Z,85.59
2023-08-07T20:35:29.125Z,85.34
2023-08-07T20:37:57.221Z,85.17
2023-08-07T20:40:25.446Z,85.35
2023-08-07T20:42:55.198Z,85.51
2023-08-07T20:45:23.554Z,85.39
2023-08-07T20:47:51.787Z,85.21
2023-08-07T20:50:20.459Z,85.38
2023-08-07T20:52:48.361Z,85.28
2023-08-07T20:55:16.632Z,85.36
2023-08-07T20:57:45.045Z,85.48
2023-08-07T21:00:17.248Z,85.41
2023-08-07T21:02:45.425Z,85.33
2023-08-07T21:05:13.549Z,84.97
2023-08-07T21:07:41.746Z,85.23
2023-08-07T21:10:10.526Z,85.46
2023-08-07T21:12:38.707Z,85.06
2023-08-07T21:15:07.917Z,85.34
2023-08-07T21:17:37.431Z,85.48
2023-08-07T21:20:06.213Z,85.13
2023-08-07T21:22:34.330Z,85.22
2023-08-07T21:25:02.487Z,85.13
2023-08-07T21:27:30.948Z,85.25
2023-08-07T21:29:59.145Z,85.07
2023-08-07T21:32:27.385Z,85.29
2023-08-07T21:34:56.953Z,85.46
2023-08-07T21:37:32.289Z,85.35
2023-08-07T21:40:00.721Z,85.19
2023-08-07T21:42:29.650Z,84.96
2023-08-07T21:44:57.859Z,85.33
2023-08-07T21:47:26.080Z,85.02
2023-08-07T21:49:54.081Z,85.20
2023-08-07T21:52:23.632Z,85.33
2023-08-07T21:54:51.697Z,85.04
2023-08-07T21:57:19.807Z,85.09
2023-08-07T21:59:48.262Z,84.96
2023-08-07T22:02:16.298Z,85.16
2023-08-07T22:04:44.509Z,85.02
2023-08-07T22:07:12.542Z,84.88
2023-08-07T22:09:42.001Z,84.98
2023-08-07T22:12:10.769Z,85.07
2023-08-07T22:14:38.902Z,85.21
2023-08-07T22:17:08.069Z,85.11
2023-08-07T22:19:36.418Z,85.05
2023-08-07T22:22:04.993Z,84.97
2023-08-07T22:24:33.536Z,84.93
2023-08-07T22:27:03.057Z,85.22
2023-08-07T22:29:31.177Z,85.05
2023-08-07T22:31:59.577Z,84.76
2023-08-07T22:34:27.691Z,85.27
2023-08-07T22:36:56.408Z,85.22
2023-08-07T22:39:24.459Z,84.83
2023-08-07T22:41:52.761Z,84.94
2023-08-07T22:44:22.225Z,84.78
2023-08-07T22:46:50.270Z,85.04
2023-08-07T22:49:21.102Z,84.74
2023-08-07T22:51:49.150Z,85.25
2023-08-07T22:54:17.322Z,85.21
2023-08-07T22:56:45.779Z,84.91
2023-08-07T22:59:13.829Z,85.08
2023-08-07T23:01:43.384Z,85.01
2023-08-07T23:04:11.598Z,85.08
2023-08-07T23:06:39.740Z,84.72
2023-08-07T23:09:07.972Z,85.13
2023-08-07T23:11:36.124Z,84.91
2023-08-07T23:14:07.346Z,84.75
2023-08-07T23:16:35.404Z,85.14
2023-08-07T23:19:04.907Z,85.05
2023-08-07T23:21:33.026Z,84.75
2023-08-07T23:24:01.250Z,84.87
2023-08-07T23:26:32.094Z,85.19
2023-08-07T23:29:00.184Z,84.69
2023-08-07T23:31:29.003Z,85.10
2023-08-07T23:33:57.327Z,84.97
2023-08-07T23:36:26.963Z,84.82
2023-08-07T23:38:54.991Z,84.71
2023-08-07T23:41:23.048Z,85.10
2023-08-07T23:43:51.114Z,84.83
2023-08-07T23:46:19.317Z,85.00
2023-08-07T23:48:47.317Z,84.88
2023-08-07T23:51:15.486Z,84.86
2023-08-07T23:53:45.032Z,84.83
2023-08-07T23:56:13.169Z,84.59
2023-08-07T23:58:41.265Z,85.04
